Airfield :
LOGIN :

Register | Disclaimer

   EN    FR    IT 

 










Legend :    VFR   Marginal VFR   IFR   Intensive IFR   Very Intensive IFR
Visi :
Ceiling :
>= 8 km
>= 3000ft
5 to 8 km
1000 to 3000 ft
1500m to 5 km
500 to 1000 ft
800 to 1500m
200 to 500 ft
< 800m
< 200 ft
Symbols :   Thunderstorms  Fog  Heavy snow  Heavy precipitations  Wind > 20 kt
SIGMETs :     Misc.  Thunderstorms  Icing  Turbulence  Mountain Waves  Volcanic Ashes







- Airport Elevation : 1504 ft
- IATA code : PNA


LEPP - Noain Pamplona

CURRENT METAR :
  • 211430Z 34011KT 290V010 9999 SCT036 22/12 Q1017

EXPIRED METARs :
  • 211400Z 35011KT 310V020 9999 FEW035 SCT050 22/12 Q1017
  • 211330Z 34010KT 310V020 9999 SCT052 21/12 Q1018
  • 211300Z 36010KT 330V030 9999 SCT052 21/12 Q1018
  • 211230Z 34011KT 300V010 9999 SCT030 BKN053 20/12 Q1018
  • 211200Z 35009KT 310V020 9999 FEW035 BKN045 20/13 Q1018

TAF TAF LEPP
Valid from the 21 at 15:00 until the 22 at 15:00 UTC


211400Z 2115/2215 34009KT 9999 SCT025 SCT050 TX27/2215Z TN13/2205Z
TEMPO 2115/2120 SCT030TCU
PROB40
TEMPO 2212/2215 34015G25KT
No reported NOTAMs for that airfield.



MET'MAP, your aeronautical weather chart ! - Copyright ORBIFLY December 2007 - Disclaimer

ORBIFLY MET'MAP TEAM :

Programming & Development : Alexandra Zaïnal
Concept & Development : Baudouin d'Aumeries
Co-Development & Prog : Marc-Olivier Méhu
Technical & hardware support : Manuel Goepfert

Contact : metmap@orbifly.com




SOURCES & CREDITS :

   NOAA